sensor_id;sensor_type;location;lat;lon;timestamp;temperature;humidity
31687;DHT22;18285;51.330;4.946;2023-11-21T00:11:27;23.60;41.60
31687;DHT22;18285;51.330;4.946;2023-11-21T00:35:38;23.60;41.00
31687;DHT22;18285;51.330;4.946;2023-11-21T00:59:49;23.60;40.60
31687;DHT22;18285;51.330;4.946;2023-11-21T01:24:00;23.50;40.60
31687;DHT22;18285;51.330;4.946;2023-11-21T01:48:11;23.50;40.80
31687;DHT22;18285;51.330;4.946;2023-11-21T02:12:23;23.50;40.40
31687;DHT22;18285;51.330;4.946;2023-11-21T02:36:37;23.50;40.60
31687;DHT22;18285;51.330;4.946;2023-11-21T03:00:47;23.50;40.50
31687;DHT22;18285;51.330;4.946;2023-11-21T03:24:58;23.60;40.50
31687;DHT22;18285;51.330;4.946;2023-11-21T03:49:09;23.50;40.40
31687;DHT22;18285;51.330;4.946;2023-11-21T04:13:19;23.50;40.50
31687;DHT22;18285;51.330;4.946;2023-11-21T04:37:30;23.50;40.60
31687;DHT22;18285;51.330;4.946;2023-11-21T05:01:41;23.60;40.20
31687;DHT22;18285;51.330;4.946;2023-11-21T05:25:51;23.60;40.50
31687;DHT22;18285;51.330;4.946;2023-11-21T05:50:04;23.50;40.80
31687;DHT22;18285;51.330;4.946;2023-11-21T06:14:16;23.50;41.00
31687;DHT22;18285;51.330;4.946;2023-11-21T06:38:28;23.60;41.40
31687;DHT22;18285;51.330;4.946;2023-11-21T07:02:40;23.70;41.40
31687;DHT22;18285;51.330;4.946;2023-11-21T07:26:51;23.60;41.40
31687;DHT22;18285;51.330;4.946;2023-11-21T07:51:05;23.60;41.30
31687;DHT22;18285;51.330;4.946;2023-11-21T08:15:17;23.50;41.70
31687;DHT22;18285;51.330;4.946;2023-11-21T08:39:28;23.50;41.60
31687;DHT22;18285;51.330;4.946;2023-11-21T09:03:38;23.50;41.80
31687;DHT22;18285;51.330;4.946;2023-11-21T09:27:49;23.60;41.90
31687;DHT22;18285;51.330;4.946;2023-11-21T09:52:01;23.60;42.10
31687;DHT22;18285;51.330;4.946;2023-11-21T10:16:16;23.50;42.40
31687;DHT22;18285;51.330;4.946;2023-11-21T10:40:31;23.60;42.60
31687;DHT22;18285;51.330;4.946;2023-11-21T11:04:43;23.60;42.60
31687;DHT22;18285;51.330;4.946;2023-11-21T11:53:14;23.70;42.60
31687;DHT22;18285;51.330;4.946;2023-11-21T12:17:25;23.70;42.80
31687;DHT22;18285;51.330;4.946;2023-11-21T12:41:36;23.70;43.30
31687;DHT22;18285;51.330;4.946;2023-11-21T13:05:48;23.70;43.10
31687;DHT22;18285;51.330;4.946;2023-11-21T13:30:04;23.70;43.00
31687;DHT22;18285;51.330;4.946;2023-11-21T13:54:15;23.70;43.40
31687;DHT22;18285;51.330;4.946;2023-11-21T14:18:25;23.70;43.30
31687;DHT22;18285;51.330;4.946;2023-11-21T14:42:40;23.70;43.20
31687;DHT22;18285;51.330;4.946;2023-11-21T15:06:52;23.70;43.20
31687;DHT22;18285;51.330;4.946;2023-11-21T15:31:04;23.70;43.40
31687;DHT22;18285;51.330;4.946;2023-11-21T15:55:15;23.70;43.30
31687;DHT22;18285;51.330;4.946;2023-11-21T16:19:27;23.70;43.20
31687;DHT22;18285;51.330;4.946;2023-11-21T16:43:38;23.70;43.30
31687;DHT22;18285;51.330;4.946;2023-11-21T17:07:49;23.60;44.60
31687;DHT22;18285;51.330;4.946;2023-11-21T17:31:59;23.70;43.60
31687;DHT22;18285;51.330;4.946;2023-11-21T17:56:15;23.70;45.10
31687;DHT22;18285;51.330;4.946;2023-11-21T18:20:31;23.70;45.00
31687;DHT22;18285;51.330;4.946;2023-11-21T18:44:42;23.80;44.00
31687;DHT22;18285;51.330;4.946;2023-11-21T19:08:53;23.70;43.80
31687;DHT22;18285;51.330;4.946;2023-11-21T19:33:04;23.70;45.10
31687;DHT22;18285;51.330;4.946;2023-11-21T19:57:15;23.60;44.50
31687;DHT22;18285;51.330;4.946;2023-11-21T20:21:26;23.60;42.60
31687;DHT22;18285;51.330;4.946;2023-11-21T20:45:37;23.50;42.90
31687;DHT22;18285;51.330;4.946;2023-11-21T21:09:49;23.50;42.40
31687;DHT22;18285;51.330;4.946;2023-11-21T21:34:00;23.50;42.40
31687;DHT22;18285;51.330;4.946;2023-11-21T21:58:10;23.50;42.40
31687;DHT22;18285;51.330;4.946;2023-11-21T22:22:21;23.50;41.50
31687;DHT22;18285;51.330;4.946;2023-11-21T22:46:32;23.50;41.50
31687;DHT22;18285;51.330;4.946;2023-11-21T23:10:42;23.50;41.40
31687;DHT22;18285;51.330;4.946;2023-11-21T23:34:53;23.50;40.90
31687;DHT22;18285;51.330;4.946;2023-11-21T23:59:04;23.50;41.00
